sensor_id;sensor_type;location;lat;lon;timestamp;pressure;altitude;pressure_sealevel;temperature;humidity
12626;BME280;6378;42.684;23.372;2023-09-12T00:00:33;95238.25;;;16.98;100.00
12626;BME280;6378;42.684;23.372;2023-09-12T00:02:59;95242.91;;;16.97;100.00
12626;BME280;6378;42.684;23.372;2023-09-12T00:05:24;95239.81;;;16.99;100.00
12626;BME280;6378;42.684;23.372;2023-09-12T00:07:52;95244.03;;;16.89;100.00
12626;BME280;6378;42.684;23.372;2023-09-12T00:10:18;95244.78;;;16.82;100.00
12626;BME280;6378;42.684;23.372;2023-09-12T00:12:44;95256.06;;;16.84;100.00
12626;BME280;6378;42.684;23.372;2023-09-12T00:15:09;95245.13;;;16.77;100.00
12626;BME280;6378;42.684;23.372;2023-09-12T00:17:35;95248.97;;;16.69;100.00
12626;BME280;6378;42.684;23.372;2023-09-12T00:20:00;95252.84;;;16.72;100.00
12626;BME280;6378;42.684;23.372;2023-09-12T00:22:25;95235.75;;;16.64;100.00
12626;BME280;6378;42.684;23.372;2023-09-12T00:24:51;95253.13;;;16.56;100.00
12626;BME280;6378;42.684;23.372;2023-09-12T00:27:16;95255.06;;;16.56;100.00
12626;BME280;6378;42.684;23.372;2023-09-12T00:29:41;95254.22;;;16.48;100.00
12626;BME280;6378;42.684;23.372;2023-09-12T00:32:07;95252.63;;;16.43;100.00
12626;BME280;6378;42.684;23.372;2023-09-12T00:34:32;95252.59;;;16.36;100.00
12626;BME280;6378;42.684;23.372;2023-09-12T00:36:58;95251.47;;;16.41;100.00
12626;BME280;6378;42.684;23.372;2023-09-12T00:39:23;95262.69;;;16.36;100.00
12626;BME280;6378;42.684;23.372;2023-09-12T00:41:48;95262.63;;;16.29;100.00
12626;BME280;6378;42.684;23.372;2023-09-12T00:44:14;95260.94;;;16.14;100.00
12626;BME280;6378;42.684;23.372;2023-09-12T00:46:39;95262.06;;;16.13;100.00
12626;BME280;6378;42.684;23.372;2023-09-12T00:49:06;95271.88;;;16.21;100.00
12626;BME280;6378;42.684;23.372;2023-09-12T00:51:33;95241.03;;;15.99;100.00
12626;BME280;6378;42.684;23.372;2023-09-12T00:53:59;95254.88;;;15.87;100.00
12626;BME280;6378;42.684;23.372;2023-09-12T00:56:25;95277.44;;;15.94;100.00
12626;BME280;6378;42.684;23.372;2023-09-12T00:58:51;95263.34;;;15.82;100.00
12626;BME280;6378;42.684;23.372;2023-09-12T01:01:18;95263.84;;;15.91;100.00
12626;BME280;6378;42.684;23.372;2023-09-12T01:03:43;95273.13;;;15.90;100.00
12626;BME280;6378;42.684;23.372;2023-09-12T01:06:09;95281.13;;;15.76;100.00
12626;BME280;6378;42.684;23.372;2023-09-12T01:08:35;95279.19;;;15.76;100.00
12626;BME280;6378;42.684;23.372;2023-09-12T01:11:03;95281.09;;;15.72;100.00
12626;BME280;6378;42.684;23.372;2023-09-12T01:13:29;95281.44;;;15.67;100.00
12626;BME280;6378;42.684;23.372;2023-09-12T01:15:54;95280.13;;;15.54;100.00
12626;BME280;6378;42.684;23.372;2023-09-12T01:18:19;95275.47;;;15.54;100.00
12626;BME280;6378;42.684;23.372;2023-09-12T01:26:30;95283.59;;;15.54;100.00
12626;BME280;6378;42.684;23.372;2023-09-12T01:29:06;95277.31;;;15.50;100.00
12626;BME280;6378;42.684;23.372;2023-09-12T01:31:34;95285.13;;;15.52;100.00
12626;BME280;6378;42.684;23.372;2023-09-12T01:34:09;95277.97;;;15.40;100.00
12626;BME280;6378;42.684;23.372;2023-09-12T01:36:34;95276.50;;;15.46;100.00
12626;BME280;6378;42.684;23.372;2023-09-12T01:39:00;95284.34;;;15.51;100.00
12626;BME280;6378;42.684;23.372;2023-09-12T01:41:26;95282.22;;;15.38;100.00
12626;BME280;6378;42.684;23.372;2023-09-12T01:43:52;95274.31;;;15.26;100.00
12626;BME280;6378;42.684;23.372;2023-09-12T01:46:18;95264.44;;;15.10;100.00
12626;BME280;6378;42.684;23.372;2023-09-12T01:48:45;95283.63;;;15.25;100.00
12626;BME280;6378;42.684;23.372;2023-09-12T01:51:16;95293.25;;;15.22;100.00
12626;BME280;6378;42.684;23.372;2023-09-12T01:53:44;95281.22;;;15.20;100.00
12626;BME280;6378;42.684;23.372;2023-09-12T01:56:12;95290.91;;;15.21;100.00
12626;BME280;6378;42.684;23.372;2023-09-12T01:58:38;95296.28;;;15.17;100.00
12626;BME280;6378;42.684;23.372;2023-09-12T02:01:03;95247.81;;;14.82;100.00
12626;BME280;6378;42.684;23.372;2023-09-12T02:03:29;95290.84;;;15.13;100.00
12626;BME280;6378;42.684;23.372;2023-09-12T02:05:54;95273.56;;;14.95;100.00
12626;BME280;6378;42.684;23.372;2023-09-12T02:08:20;95289.03;;;14.95;100.00
12626;BME280;6378;42.684;23.372;2023-09-12T02:10:45;95313.94;;;15.04;100.00
12626;BME280;6378;42.684;23.372;2023-09-12T02:13:10;95287.16;;;14.99;100.00
12626;BME280;6378;42.684;23.372;2023-09-12T02:15:36;95294.69;;;14.86;100.00
12626;BME280;6378;42.684;23.372;2023-09-12T02:18:01;95295.00;;;14.81;100.00
12626;BME280;6378;42.684;23.372;2023-09-12T02:20:27;95286.38;;;14.72;100.00
12626;BME280;6378;42.684;23.372;2023-09-12T02:22:52;95275.75;;;14.60;100.00
12626;BME280;6378;42.684;23.372;2023-09-12T02:25:18;95302.75;;;14.79;100.00
12626;BME280;6378;42.684;23.372;2023-09-12T02:27:44;95305.03;;;14.77;100.00
12626;BME280;6378;42.684;23.372;2023-09-12T02:30:09;95301.19;;;14.78;100.00
12626;BME280;6378;42.684;23.372;2023-09-12T02:32:35;95306.59;;;14.78;100.00
12626;BME280;6378;42.684;23.372;2023-09-12T02:35:00;95304.63;;;14.75;100.00
12626;BME280;6378;42.684;23.372;2023-09-12T02:37:25;95299.09;;;14.68;100.00
12626;BME280;6378;42.684;23.372;2023-09-12T02:39:51;95273.41;;;14.58;100.00
12626;BME280;6378;42.684;23.372;2023-09-12T02:42:16;95293.06;;;14.78;100.00
12626;BME280;6378;42.684;23.372;2023-09-12T02:44:41;95299.28;;;14.82;100.00
12626;BME280;6378;42.684;23.372;2023-09-12T02:47:07;95304.25;;;14.77;100.00
12626;BME280;6378;42.684;23.372;2023-09-12T02:49:32;95307.03;;;14.80;100.00
12626;BME280;6378;42.684;23.372;2023-09-12T02:51:57;95305.81;;;14.78;100.00
12626;BME280;6378;42.684;23.372;2023-09-12T02:54:23;95302.31;;;14.77;100.00
12626;BME280;6378;42.684;23.372;2023-09-12T02:56:48;95305.66;;;14.67;100.00
12626;BME280;6378;42.684;23.372;2023-09-12T02:59:14;95302.16;;;14.66;100.00
12626;BME280;6378;42.684;23.372;2023-09-12T03:01:39;95307.38;;;14.79;100.00
12626;BME280;6378;42.684;23.372;2023-09-12T03:04:04;95297.22;;;14.72;100.00
12626;BME280;6378;42.684;23.372;2023-09-12T03:06:30;95304.31;;;14.80;100.00
12626;BME280;6378;42.684;23.372;2023-09-12T03:08:56;95305.50;;;14.83;100.00
12626;BME280;6378;42.684;23.372;2023-09-12T03:11:21;95309.66;;;14.77;100.00
12626;BME280;6378;42.684;23.372;2023-09-12T03:13:46;95313.97;;;14.81;100.00
12626;BME280;6378;42.684;23.372;2023-09-12T03:16:13;95309.31;;;14.78;100.00
12626;BME280;6378;42.684;23.372;2023-09-12T03:18:39;95304.94;;;14.70;100.00
12626;BME280;6378;42.684;23.372;2023-09-12T03:21:04;95282.19;;;14.52;100.00
12626;BME280;6378;42.684;23.372;2023-09-12T03:23:30;95312.69;;;14.71;100.00
12626;BME280;6378;42.684;23.372;2023-09-12T03:26:02;95315.09;;;14.77;100.00
12626;BME280;6378;42.684;23.372;2023-09-12T03:28:28;95311.25;;;14.51;100.00
12626;BME280;6378;42.684;23.372;2023-09-12T03:31:06;95293.09;;;14.32;100.00
12626;BME280;6378;42.684;23.372;2023-09-12T03:33:32;95318.97;;;14.30;100.00
12626;BME280;6378;42.684;23.372;2023-09-12T03:35:58;95312.94;;;14.17;100.00
12626;BME280;6378;42.684;23.372;2023-09-12T03:38:23;95321.06;;;14.37;100.00
12626;BME280;6378;42.684;23.372;2023-09-12T03:40:49;95321.16;;;14.21;100.00
12626;BME280;6378;42.684;23.372;2023-09-12T03:43:14;95322.88;;;14.10;100.00
12626;BME280;6378;42.684;23.372;2023-09-12T03:45:39;95321.69;;;14.07;100.00
12626;BME280;6378;42.684;23.372;2023-09-12T03:48:05;95322.38;;;14.04;100.00
12626;BME280;6378;42.684;23.372;2023-09-12T03:50:30;95318.06;;;14.00;100.00
12626;BME280;6378;42.684;23.372;2023-09-12T03:52:56;95318.06;;;14.00;100.00
12626;BME280;6378;42.684;23.372;2023-09-12T03:55:22;95328.44;;;13.98;100.00
12626;BME280;6378;42.684;23.372;2023-09-12T03:57:47;95330.00;;;13.99;100.00
12626;BME280;6378;42.684;23.372;2023-09-12T04:00:13;95328.53;;;14.01;100.00
12626;BME280;6378;42.684;23.372;2023-09-12T04:02:39;95330.81;;;13.99;100.00
12626;BME280;6378;42.684;23.372;2023-09-12T04:05:04;95322.28;;;13.97;100.00
12626;BME280;6378;42.684;23.372;2023-09-12T04:07:30;95313.78;;;13.99;100.00
12626;BME280;6378;42.684;23.372;2023-09-12T04:09:55;95323.97;;;14.05;100.00
12626;BME280;6378;42.684;23.372;2023-09-12T04:12:21;95324.81;;;14.09;100.00
12626;BME280;6378;42.684;23.372;2023-09-12T04:14:49;95335.31;;;14.14;100.00
12626;BME280;6378;42.684;23.372;2023-09-12T04:17:14;95333.91;;;14.43;100.00
12626;BME280;6378;42.684;23.372;2023-09-12T04:19:39;95328.75;;;14.84;100.00
12626;BME280;6378;42.684;23.372;2023-09-12T04:22:05;95325.94;;;15.33;100.00
12626;BME280;6378;42.684;23.372;2023-09-12T04:24:30;95322.28;;;15.81;100.00
12626;BME280;6378;42.684;23.372;2023-09-12T04:26:56;95315.97;;;16.07;100.00
12626;BME280;6378;42.684;23.372;2023-09-12T04:29:21;95328.94;;;16.68;100.00
12626;BME280;6378;42.684;23.372;2023-09-12T04:31:47;95298.09;;;16.98;100.00
12626;BME280;6378;42.684;23.372;2023-09-12T04:34:12;95323.72;;;17.65;100.00
12626;BME280;6378;42.684;23.372;2023-09-12T04:36:37;95296.97;;;17.96;100.00
12626;BME280;6378;42.684;23.372;2023-09-12T04:39:03;95318.09;;;18.59;100.00
12626;BME280;6378;42.684;23.372;2023-09-12T04:41:30;95323.13;;;19.07;100.00
12626;BME280;6378;42.684;23.372;2023-09-12T04:43:55;95316.09;;;19.20;100.00
12626;BME280;6378;42.684;23.372;2023-09-12T04:46:20;95323.50;;;19.12;100.00
12626;BME280;6378;42.684;23.372;2023-09-12T04:48:46;95311.38;;;19.31;96.42
12626;BME280;6378;42.684;23.372;2023-09-12T04:51:11;95306.84;;;19.97;86.99
12626;BME280;6378;42.684;23.372;2023-09-12T04:53:37;95263.13;;;19.97;83.71
12626;BME280;6378;42.684;23.372;2023-09-12T04:56:03;95333.84;;;20.54;82.06
12626;BME280;6378;42.684;23.372;2023-09-12T04:58:28;95328.59;;;20.81;77.71
12626;BME280;6378;42.684;23.372;2023-09-12T05:00:54;95325.59;;;21.09;73.64
12626;BME280;6378;42.684;23.372;2023-09-12T05:03:20;95318.66;;;21.38;69.11
12626;BME280;6378;42.684;23.372;2023-09-12T05:05:47;95349.22;;;21.71;67.21
12626;BME280;6378;42.684;23.372;2023-09-12T05:08:13;95339.16;;;21.94;65.05
12626;BME280;6378;42.684;23.372;2023-09-12T05:10:38;95347.31;;;22.01;63.67
12626;BME280;6378;42.684;23.372;2023-09-12T05:13:04;95342.47;;;22.13;63.40
12626;BME280;6378;42.684;23.372;2023-09-12T05:15:30;95319.84;;;22.59;59.18
12626;BME280;6378;42.684;23.372;2023-09-12T05:17:55;95339.25;;;22.75;57.99
12626;BME280;6378;42.684;23.372;2023-09-12T05:20:20;95335.66;;;22.51;59.03
12626;BME280;6378;42.684;23.372;2023-09-12T05:22:46;95341.44;;;22.83;57.03
12626;BME280;6378;42.684;23.372;2023-09-12T05:25:11;95340.97;;;22.88;56.21
12626;BME280;6378;42.684;23.372;2023-09-12T05:27:37;95349.69;;;23.53;52.94
12626;BME280;6378;42.684;23.372;2023-09-12T05:30:02;95344.72;;;23.68;52.12
12626;BME280;6378;42.684;23.372;2023-09-12T05:32:28;95345.06;;;23.70;51.60
12626;BME280;6378;42.684;23.372;2023-09-12T05:34:53;95329.06;;;23.85;51.00
12626;BME280;6378;42.684;23.372;2023-09-12T05:37:19;95273.47;;;23.57;49.73
12626;BME280;6378;42.684;23.372;2023-09-12T05:39:46;95338.84;;;23.86;50.38
12626;BME280;6378;42.684;23.372;2023-09-12T05:42:11;95346.09;;;24.35;51.38
12626;BME280;6378;42.684;23.372;2023-09-12T05:44:37;95327.19;;;24.37;48.62
12626;BME280;6378;42.684;23.372;2023-09-12T05:47:03;95341.91;;;24.47;47.66
12626;BME280;6378;42.684;23.372;2023-09-12T05:49:28;95349.03;;;23.46;51.46
12626;BME280;6378;42.684;23.372;2023-09-12T05:51:53;95342.50;;;22.66;53.17
12626;BME280;6378;42.684;23.372;2023-09-12T05:54:19;95353.78;;;22.15;56.37
12626;BME280;6378;42.684;23.372;2023-09-12T05:56:44;95344.81;;;22.41;59.05
12626;BME280;6378;42.684;23.372;2023-09-12T05:59:10;95346.22;;;23.03;56.07
12626;BME280;6378;42.684;23.372;2023-09-12T06:01:35;95346.53;;;22.85;55.64
12626;BME280;6378;42.684;23.372;2023-09-12T06:04:01;95350.06;;;22.85;54.63
12626;BME280;6378;42.684;23.372;2023-09-12T06:06:27;95349.59;;;22.91;56.21
12626;BME280;6378;42.684;23.372;2023-09-12T06:08:52;95350.19;;;23.02;55.19
12626;BME280;6378;42.684;23.372;2023-09-12T06:11:18;95347.25;;;22.62;56.33
12626;BME280;6378;42.684;23.372;2023-09-12T06:13:44;95340.66;;;22.29;58.06
12626;BME280;6378;42.684;23.372;2023-09-12T06:16:09;95355.34;;;21.82;61.05
12626;BME280;6378;42.684;23.372;2023-09-12T06:18:35;95350.19;;;23.02;54.71
12626;BME280;6378;42.684;23.372;2023-09-12T06:21:00;95355.78;;;23.84;51.46
12626;BME280;6378;42.684;23.372;2023-09-12T06:23:29;95355.28;;;24.29;50.68
12626;BME280;6378;42.684;23.372;2023-09-12T06:25:55;95334.69;;;24.17;48.63
12626;BME280;6378;42.684;23.372;2023-09-12T06:28:27;95357.25;;;24.80;47.96
12626;BME280;6378;42.684;23.372;2023-09-12T06:30:53;95363.81;;;25.19;46.48
12626;BME280;6378;42.684;23.372;2023-09-12T06:33:18;95335.75;;;25.08;44.40
12626;BME280;6378;42.684;23.372;2023-09-12T06:35:48;95299.78;;;23.35;49.16
12626;BME280;6378;42.684;23.372;2023-09-12T06:38:13;95365.84;;;23.71;49.84
12626;BME280;6378;42.684;23.372;2023-09-12T06:40:38;95373.28;;;24.33;47.44
12626;BME280;6378;42.684;23.372;2023-09-12T06:43:04;95363.38;;;23.96;47.69
12626;BME280;6378;42.684;23.372;2023-09-12T06:45:29;95364.66;;;24.31;47.40
12626;BME280;6378;42.684;23.372;2023-09-12T06:47:58;95363.59;;;24.25;46.67
12626;BME280;6378;42.684;23.372;2023-09-12T06:50:23;95367.00;;;24.49;47.02
12626;BME280;6378;42.684;23.372;2023-09-12T06:52:48;95350.78;;;24.54;46.09
12626;BME280;6378;42.684;23.372;2023-09-12T06:55:14;95375.91;;;24.56;46.40
12626;BME280;6378;42.684;23.372;2023-09-12T06:57:39;95357.97;;;24.32;47.16
12626;BME280;6378;42.684;23.372;2023-09-12T07:00:06;95373.38;;;24.46;45.93
12626;BME280;6378;42.684;23.372;2023-09-12T07:02:35;95367.28;;;24.54;46.98
12626;BME280;6378;42.684;23.372;2023-09-12T07:05:00;95374.66;;;24.41;46.66
12626;BME280;6378;42.684;23.372;2023-09-12T07:07:25;95363.28;;;24.39;46.28
12626;BME280;6378;42.684;23.372;2023-09-12T07:09:51;95372.97;;;24.64;45.79
12626;BME280;6378;42.684;23.372;2023-09-12T07:12:16;95372.34;;;24.00;46.68
12626;BME280;6378;42.684;23.372;2023-09-12T07:14:42;95367.19;;;23.83;47.88
12626;BME280;6378;42.684;23.372;2023-09-12T07:17:07;95375.44;;;23.63;48.80
12626;BME280;6378;42.684;23.372;2023-09-12T07:19:33;95361.00;;;23.36;48.56
12626;BME280;6378;42.684;23.372;2023-09-12T07:21:58;95375.09;;;24.20;46.60
12626;BME280;6378;42.684;23.372;2023-09-12T07:24:27;95371.50;;;24.43;45.51
12626;BME280;6378;42.684;23.372;2023-09-12T07:26:52;95373.31;;;24.10;47.20
12626;BME280;6378;42.684;23.372;2023-09-12T07:29:18;95371.16;;;24.21;44.97
12626;BME280;6378;42.684;23.372;2023-09-12T07:31:43;95354.88;;;24.46;44.96
12626;BME280;6378;42.684;23.372;2023-09-12T07:34:09;95374.75;;;24.90;42.96
12626;BME280;6378;42.684;23.372;2023-09-12T07:36:35;95367.88;;;24.98;43.34
12626;BME280;6378;42.684;23.372;2023-09-12T07:39:01;95380.09;;;25.13;40.59
12626;BME280;6378;42.684;23.372;2023-09-12T07:41:28;95366.50;;;24.90;41.23
12626;BME280;6378;42.684;23.372;2023-09-12T07:43:54;95373.75;;;25.16;42.37
12626;BME280;6378;42.684;23.372;2023-09-12T07:46:19;95336.44;;;24.79;40.96
12626;BME280;6378;42.684;23.372;2023-09-12T07:48:44;95368.75;;;24.95;41.55
12626;BME280;6378;42.684;23.372;2023-09-12T07:51:16;95370.88;;;25.03;41.57
12626;BME280;6378;42.684;23.372;2023-09-12T07:53:43;95347.59;;;24.56;41.34
12626;BME280;6378;42.684;23.372;2023-09-12T07:56:09;95368.00;;;24.75;40.72
12626;BME280;6378;42.684;23.372;2023-09-12T07:58:35;95363.59;;;24.61;40.64
12626;BME280;6378;42.684;23.372;2023-09-12T08:01:07;95369.94;;;24.42;40.15
12626;BME280;6378;42.684;23.372;2023-09-12T08:03:34;95360.06;;;24.96;39.71
12626;BME280;6378;42.684;23.372;2023-09-12T08:06:01;95361.06;;;25.35;38.55
12626;BME280;6378;42.684;23.372;2023-09-12T08:08:26;95372.25;;;25.44;38.29
12626;BME280;6378;42.684;23.372;2023-09-12T08:10:52;95370.72;;;25.11;37.93
12626;BME280;6378;42.684;23.372;2023-09-12T08:13:17;95367.28;;;24.54;38.33
12626;BME280;6378;42.684;23.372;2023-09-12T08:15:43;95374.56;;;24.29;38.35
12626;BME280;6378;42.684;23.372;2023-09-12T08:18:08;95368.59;;;24.66;38.57
12626;BME280;6378;42.684;23.372;2023-09-12T08:20:33;95370.06;;;24.71;38.79
12626;BME280;6378;42.684;23.372;2023-09-12T08:22:59;95369.84;;;25.30;37.81
12626;BME280;6378;42.684;23.372;2023-09-12T08:25:24;95365.09;;;25.63;36.89
12626;BME280;6378;42.684;23.372;2023-09-12T08:27:50;95375.69;;;25.48;36.59
12626;BME280;6378;42.684;23.372;2023-09-12T08:30:16;95362.22;;;25.66;37.34
12626;BME280;6378;42.684;23.372;2023-09-12T08:32:42;95359.44;;;25.82;36.72
12626;BME280;6378;42.684;23.372;2023-09-12T08:35:11;95362.44;;;25.59;36.90
12626;BME280;6378;42.684;23.372;2023-09-12T08:37:40;95360.84;;;24.97;37.70
12626;BME280;6378;42.684;23.372;2023-09-12T08:40:09;95352.72;;;24.38;38.22
12626;BME280;6378;42.684;23.372;2023-09-12T08:42:42;95351.28;;;25.01;38.38
12626;BME280;6378;42.684;23.372;2023-09-12T08:45:16;95346.34;;;25.09;37.31
12626;BME280;6378;42.684;23.372;2023-09-12T08:47:44;95337.38;;;25.37;36.97
12626;BME280;6378;42.684;23.372;2023-09-12T08:50:11;95343.41;;;25.77;36.55
12626;BME280;6378;42.684;23.372;2023-09-12T08:52:38;95344.47;;;25.96;36.04
12626;BME280;6378;42.684;23.372;2023-09-12T08:55:04;95328.47;;;26.33;35.03
12626;BME280;6378;42.684;23.372;2023-09-12T08:57:32;95346.41;;;25.83;35.85
12626;BME280;6378;42.684;23.372;2023-09-12T09:00:00;95326.78;;;26.22;34.74
12626;BME280;6378;42.684;23.372;2023-09-12T09:02:35;95348.78;;;26.39;34.96
12626;BME280;6378;42.684;23.372;2023-09-12T09:05:02;95356.59;;;26.27;35.63
12626;BME280;6378;42.684;23.372;2023-09-12T09:07:31;95339.53;;;26.16;34.25
12626;BME280;6378;42.684;23.372;2023-09-12T09:09:57;95340.31;;;26.58;33.93
12626;BME280;6378;42.684;23.372;2023-09-12T09:12:22;95336.19;;;26.76;33.74
12626;BME280;6378;42.684;23.372;2023-09-12T09:14:48;95340.84;;;26.91;33.86
12626;BME280;6378;42.684;23.372;2023-09-12T09:17:14;95335.44;;;26.62;33.84
12626;BME280;6378;42.684;23.372;2023-09-12T09:19:41;95333.13;;;26.19;34.28
12626;BME280;6378;42.684;23.372;2023-09-12T09:22:08;95327.19;;;26.08;35.01
12626;BME280;6378;42.684;23.372;2023-09-12T09:24:33;95333.63;;;26.30;34.68
12626;BME280;6378;42.684;23.372;2023-09-12T09:26:59;95337.31;;;26.65;34.41
12626;BME280;6378;42.684;23.372;2023-09-12T09:29:26;95315.22;;;26.91;34.15
12626;BME280;6378;42.684;23.372;2023-09-12T09:31:58;95324.16;;;26.95;33.86
12626;BME280;6378;42.684;23.372;2023-09-12T09:34:23;95323.69;;;27.22;33.73
12626;BME280;6378;42.684;23.372;2023-09-12T09:36:51;95319.38;;;27.21;33.71
12626;BME280;6378;42.684;23.372;2023-09-12T09:39:22;95321.66;;;27.35;33.94
12626;BME280;6378;42.684;23.372;2023-09-12T09:41:55;95311.00;;;27.46;33.07
12626;BME280;6378;42.684;23.372;2023-09-12T09:44:22;95312.44;;;27.50;33.09
12626;BME280;6378;42.684;23.372;2023-09-12T09:46:50;95309.56;;;27.41;33.25
12626;BME280;6378;42.684;23.372;2023-09-12T09:49:20;95310.91;;;27.49;33.24
12626;BME280;6378;42.684;23.372;2023-09-12T09:51:46;95307.44;;;27.80;32.74
12626;BME280;6378;42.684;23.372;2023-09-12T09:54:13;95307.44;;;27.11;32.85
12626;BME280;6378;42.684;23.372;2023-09-12T09:56:48;95297.03;;;27.15;33.61
12626;BME280;6378;42.684;23.372;2023-09-12T09:59:15;95301.72;;;26.55;33.82
12626;BME280;6378;42.684;23.372;2023-09-12T10:01:44;95273.13;;;26.49;34.48
12626;BME280;6378;42.684;23.372;2023-09-12T10:04:10;95300.97;;;26.67;34.57
12626;BME280;6378;42.684;23.372;2023-09-12T10:06:36;95285.50;;;26.32;34.73
12626;BME280;6378;42.684;23.372;2023-09-12T10:09:06;95284.84;;;26.27;34.44
12626;BME280;6378;42.684;23.372;2023-09-12T10:11:33;95280.09;;;26.91;34.17
12626;BME280;6378;42.684;23.372;2023-09-12T10:14:00;95289.25;;;27.35;33.78
12626;BME280;6378;42.684;23.372;2023-09-12T10:21:34;95269.34;;;27.62;32.40
12626;BME280;6378;42.684;23.372;2023-09-12T10:24:00;95276.81;;;27.74;32.10
12626;BME280;6378;42.684;23.372;2023-09-12T10:26:28;95272.59;;;27.61;32.30
12626;BME280;6378;42.684;23.372;2023-09-12T10:28:56;95272.31;;;27.33;32.23
12626;BME280;6378;42.684;23.372;2023-09-12T10:31:24;95274.03;;;27.18;32.62
12626;BME280;6378;42.684;23.372;2023-09-12T10:33:50;95272.69;;;27.23;31.85
12626;BME280;6378;42.684;23.372;2023-09-12T10:36:17;95269.84;;;27.48;31.52
12626;BME280;6378;42.684;23.372;2023-09-12T10:38:44;95260.50;;;27.33;32.26
12626;BME280;6378;42.684;23.372;2023-09-12T10:41:12;95260.47;;;27.45;32.64
12626;BME280;6378;42.684;23.372;2023-09-12T10:43:42;95263.25;;;26.98;32.89
12626;BME280;6378;42.684;23.372;2023-09-12T10:46:08;95228.47;;;26.88;32.65
12626;BME280;6378;42.684;23.372;2023-09-12T10:48:35;95219.19;;;26.82;33.04
12626;BME280;6378;42.684;23.372;2023-09-12T10:51:01;95253.88;;;27.30;33.59
12626;BME280;6378;42.684;23.372;2023-09-12T10:53:30;95250.75;;;27.63;32.94
12626;BME280;6378;42.684;23.372;2023-09-12T10:56:00;95229.53;;;27.81;32.14
12626;BME280;6378;42.684;23.372;2023-09-12T10:58:25;95239.88;;;28.12;32.56
12626;BME280;6378;42.684;23.372;2023-09-12T11:01:24;95237.94;;;28.30;32.10
12626;BME280;6378;42.684;23.372;2023-09-12T11:03:51;95232.31;;;28.43;31.71
12626;BME280;6378;42.684;23.372;2023-09-12T11:06:20;95233.25;;;27.87;32.25
12626;BME280;6378;42.684;23.372;2023-09-12T11:09:25;95233.19;;;27.56;33.38
12626;BME280;6378;42.684;23.372;2023-09-12T11:14:18;95223.78;;;27.32;32.43
12626;BME280;6378;42.684;23.372;2023-09-12T11:19:48;95217.53;;;27.75;32.12
12626;BME280;6378;42.684;23.372;2023-09-12T11:22:24;95211.84;;;27.79;32.24
12626;BME280;6378;42.684;23.372;2023-09-12T11:24:50;95217.47;;;27.97;32.00
12626;BME280;6378;42.684;23.372;2023-09-12T11:27:16;95214.09;;;28.02;31.84
12626;BME280;6378;42.684;23.372;2023-09-12T11:29:42;95214.03;;;27.84;30.07
12626;BME280;6378;42.684;23.372;2023-09-12T11:32:08;95211.84;;;27.79;30.97
12626;BME280;6378;42.684;23.372;2023-09-12T11:34:43;95209.34;;;27.72;30.97
12626;BME280;6378;42.684;23.372;2023-09-12T11:37:10;95187.16;;;27.41;31.69
12626;BME280;6378;42.684;23.372;2023-09-12T11:39:37;95206.31;;;27.57;31.94
12626;BME280;6378;42.684;23.372;2023-09-12T11:42:04;95201.81;;;27.29;31.95
12626;BME280;6378;42.684;23.372;2023-09-12T11:44:31;95202.34;;;27.36;31.88
12626;BME280;6378;42.684;23.372;2023-09-12T11:46:59;95199.13;;;27.60;31.70
12626;BME280;6378;42.684;23.372;2023-09-12T11:49:34;95191.25;;;27.80;31.04
12626;BME280;6378;42.684;23.372;2023-09-12T11:52:00;95194.09;;;27.67;30.34
12626;BME280;6378;42.684;23.372;2023-09-12T11:54:26;95177.72;;;27.82;30.78
12626;BME280;6378;42.684;23.372;2023-09-12T11:56:52;95172.88;;;28.26;31.03
12626;BME280;6378;42.684;23.372;2023-09-12T11:59:30;95183.44;;;28.67;30.53
12626;BME280;6378;42.684;23.372;2023-09-12T12:01:56;95185.94;;;28.74;31.43
12626;BME280;6378;42.684;23.372;2023-09-12T12:04:22;95184.75;;;29.03;30.68
12626;BME280;6378;42.684;23.372;2023-09-12T12:06:49;95172.78;;;28.48;30.69
12626;BME280;6378;42.684;23.372;2023-09-12T12:09:16;95183.03;;;28.87;29.57
12626;BME280;6378;42.684;23.372;2023-09-12T12:11:43;95179.94;;;29.03;30.65
12626;BME280;6378;42.684;23.372;2023-09-12T12:14:16;95175.03;;;28.89;30.64
12626;BME280;6378;42.684;23.372;2023-09-12T12:16:43;95177.31;;;28.72;30.14
12626;BME280;6378;42.684;23.372;2023-09-12T12:19:09;95183.16;;;28.83;29.80
12626;BME280;6378;42.684;23.372;2023-09-12T12:21:45;95173.19;;;29.04;29.91
12626;BME280;6378;42.684;23.372;2023-09-12T12:24:11;95179.50;;;29.05;29.89
12626;BME280;6378;42.684;23.372;2023-09-12T12:26:41;95178.88;;;29.37;29.55
12626;BME280;6378;42.684;23.372;2023-09-12T12:29:08;95155.47;;;29.29;28.30
12626;BME280;6378;42.684;23.372;2023-09-12T12:31:35;95164.88;;;28.95;28.75
12626;BME280;6378;42.684;23.372;2023-09-12T12:34:00;95166.88;;;28.85;29.30
12626;BME280;6378;42.684;23.372;2023-09-12T12:36:26;95172.72;;;28.88;29.53
12626;BME280;6378;42.684;23.372;2023-09-12T12:38:52;95176.88;;;28.83;29.84
12626;BME280;6378;42.684;23.372;2023-09-12T12:41:26;95159.94;;;28.90;29.48
12626;BME280;6378;42.684;23.372;2023-09-12T12:43:52;95151.31;;;29.06;29.05
12626;BME280;6378;42.684;23.372;2023-09-12T12:46:18;95161.78;;;29.48;28.69
12626;BME280;6378;42.684;23.372;2023-09-12T12:48:48;95161.91;;;29.62;28.44
12626;BME280;6378;42.684;23.372;2023-09-12T12:51:20;95155.75;;;29.58;28.95
12626;BME280;6378;42.684;23.372;2023-09-12T12:53:49;95156.34;;;29.62;28.91
12626;BME280;6378;42.684;23.372;2023-09-12T12:56:20;95153.81;;;29.32;28.34
12626;BME280;6378;42.684;23.372;2023-09-12T12:58:52;95135.59;;;29.03;28.95
12626;BME280;6378;42.684;23.372;2023-09-12T13:01:17;95134.69;;;29.06;28.96
12626;BME280;6378;42.684;23.372;2023-09-12T13:03:43;95153.91;;;29.28;28.95
12626;BME280;6378;42.684;23.372;2023-09-12T13:06:10;95126.03;;;29.22;28.38
12626;BME280;6378;42.684;23.372;2023-09-12T13:08:44;95153.47;;;29.20;28.49
12626;BME280;6378;42.684;23.372;2023-09-12T13:11:11;95124.53;;;28.85;28.41